Time;durP1;ratioP1;P1;durP2;ratioP2;P2;SDS_P1;SDS_P2;PMS_P1;PMS_P2;Temp;Humidity;BMP_temperature;BMP_pressure;BME280_temperature;BME280_humidity;BME280_pressure;Samples;Min_cycle;Max_cycle;Signal;HPM_P1;HPM_P2
2023/01/24 00:00:50;;;;;;;29.23;14.77;;;3.80;99.90;;;;;;5051004;28;20055;-69
2023/01/24 00:03:15;;;;;;;29.63;14.27;;;3.70;99.90;;;;;;5051021;28;20116;-69
2023/01/24 00:05:43;;;;;;;30.48;14.80;;;3.70;99.90;;;;;;5048978;28;20123;-69
2023/01/24 00:08:12;;;;;;;30.55;14.13;;;3.80;99.90;;;;;;5051140;28;20052;-69
2023/01/24 00:10:38;;;;;;;31.05;15.20;;;3.80;99.90;;;;;;5049409;28;20047;-69
2023/01/24 00:13:04;;;;;;;29.50;13.85;;;3.80;99.90;;;;;;5050692;28;20045;-69
2023/01/24 00:15:29;;;;;;;27.23;13.77;;;3.80;99.90;;;;;;5049849;28;20044;-69
2023/01/24 00:17:55;;;;;;;25.00;13.75;;;3.70;99.90;;;;;;5050657;28;20494;-69
2023/01/24 00:20:21;;;;;;;28.95;13.23;;;3.80;99.90;;;;;;5049559;28;20121;-69
2023/01/24 00:22:46;;;;;;;26.70;14.52;;;3.80;99.90;;;;;;5050679;28;20041;-69
2023/01/24 00:25:12;;;;;;;28.67;14.15;;;3.80;99.90;;;;;;5048773;28;20049;-69
2023/01/24 00:27:37;;;;;;;27.80;14.10;;;3.80;99.90;;;;;;5049505;28;20041;-69
2023/01/24 00:30:05;;;;;;;29.73;13.93;;;3.80;99.90;;;;;;5050697;28;20041;-70
2023/01/24 00:32:31;;;;;;;26.17;13.23;;;3.80;99.90;;;;;;5053039;28;20094;-69
2023/01/24 00:34:57;;;;;;;28.77;14.82;;;3.80;99.90;;;;;;5053735;28;20044;-69
2023/01/24 00:37:24;;;;;;;28.00;13.82;;;3.70;99.90;;;;;;5053233;28;20036;-69
2023/01/24 00:39:49;;;;;;;27.60;13.82;;;3.70;99.90;;;;;;5053149;28;20107;-69
2023/01/24 00:42:15;;;;;;;28.65;14.63;;;3.70;99.90;;;;;;5036605;28;20044;-69
2023/01/24 00:44:40;;;;;;;26.45;14.40;;;3.70;99.90;;;;;;5052527;28;20049;-69
2023/01/24 00:47:06;;;;;;;26.70;14.82;;;3.70;99.90;;;;;;5054600;28;20115;-69
2023/01/24 00:49:31;;;;;;;26.73;14.35;;;3.70;99.90;;;;;;5054485;28;20044;-69
2023/01/24 00:51:57;;;;;;;31.27;14.25;;;3.70;99.90;;;;;;5036642;28;20045;-69
2023/01/24 00:54:22;;;;;;;29.65;14.70;;;3.70;99.90;;;;;;5053657;28;20073;-69
2023/01/24 00:56:48;;;;;;;32.08;15.25;;;3.70;99.90;;;;;;5052752;28;20478;-69
2023/01/24 00:59:14;;;;;;;31.83;14.82;;;3.70;99.90;;;;;;5054545;28;20543;-69
2023/01/24 01:01:39;;;;;;;27.33;13.55;;;3.70;99.90;;;;;;5052830;28;20068;-69
2023/01/24 01:04:05;;;;;;;29.45;13.88;;;3.70;99.90;;;;;;5053787;28;20041;-69
2023/01/24 01:06:31;;;;;;;25.88;13.30;;;3.70;99.90;;;;;;5052684;28;20091;-69
2023/01/24 01:08:56;;;;;;;26.15;14.55;;;3.70;99.90;;;;;;5036453;28;20110;-69
2023/01/24 01:11:22;;;;;;;29.38;14.65;;;3.70;99.90;;;;;;5053904;28;20041;-69
2023/01/24 01:13:48;;;;;;;29.65;14.80;;;3.70;99.90;;;;;;5053400;28;20036;-69
2023/01/24 01:16:16;;;;;;;28.65;14.48;;;3.80;99.90;;;;;;5053971;28;20044;-69
2023/01/24 01:18:42;;;;;;;25.75;13.95;;;3.70;99.90;;;;;;5052627;28;20037;-68
2023/01/24 01:21:11;;;;;;;26.25;13.70;;;3.80;99.90;;;;;;5053713;28;20501;-69
2023/01/24 01:23:37;;;;;;;28.85;13.55;;;3.80;99.90;;;;;;5052473;28;20045;-69
2023/01/24 01:26:05;;;;;;;24.40;12.70;;;3.80;99.90;;;;;;5051644;28;20110;-69
2023/01/24 01:28:31;;;;;;;24.15;13.27;;;3.80;99.90;;;;;;5052358;28;20037;-69
2023/01/24 01:30:56;;;;;;;27.75;13.68;;;3.70;99.90;;;;;;5053708;28;20037;-69
2023/01/24 01:33:23;;;;;;;28.40;14.05;;;3.80;99.90;;;;;;5053559;28;20489;-69
2023/01/24 01:35:49;;;;;;;26.40;13.32;;;3.80;99.90;;;;;;5051405;28;20052;-69
2023/01/24 01:38:16;;;;;;;26.02;12.48;;;3.80;99.90;;;;;;5053684;28;20036;-69
2023/01/24 01:40:41;;;;;;;24.08;12.82;;;3.80;99.90;;;;;;5053556;28;20033;-69
2023/01/24 01:43:23;;;;;;;24.63;13.55;;;3.80;99.90;;;;;;5051877;28;20033;-69
2023/01/24 01:45:51;;;;;;;23.02;12.55;;;3.80;99.90;;;;;;5052933;28;20074;-69
2023/01/24 01:48:27;;;;;;;30.42;14.00;;;3.80;99.90;;;;;;5053256;28;20041;-69
2023/01/24 01:51:01;;;;;;;27.35;13.82;;;3.80;99.90;;;;;;5053523;28;20045;-69
2023/01/24 01:53:31;;;;;;;24.23;12.88;;;3.80;99.90;;;;;;5053407;28;20041;-69
2023/01/24 01:56:07;;;;;;;29.15;14.10;;;3.80;99.90;;;;;;5052529;28;20120;-69
2023/01/24 01:58:34;;;;;;;27.98;15.32;;;3.80;99.90;;;;;;5053061;28;20121;-68
2023/01/24 02:00:59;;;;;;;30.17;14.38;;;3.80;99.90;;;;;;5053321;28;20037;-69
2023/01/24 02:03:38;;;;;;;26.40;12.75;;;3.80;99.90;;;;;;5053191;28;20079;-69
2023/01/24 02:06:13;;;;;;;26.95;12.63;;;3.80;99.90;;;;;;5051293;28;20678;-69
2023/01/24 02:08:39;;;;;;;28.63;13.98;;;3.80;99.90;;;;;;5056512;28;20555;-69
2023/01/24 02:16:01;;;;;;;25.88;12.13;;;3.60;99.90;;;;;;5072015;28;20049;-69
2023/01/24 02:16:36;;;;;;;21.42;11.00;;;3.70;99.90;;;;;;5072553;28;20059;-69
2023/01/24 02:19:01;;;;;;;21.58;10.85;;;3.70;99.90;;;;;;5072898;28;20400;-69
2023/01/24 02:21:27;;;;;;;21.02;11.32;;;3.70;99.90;;;;;;5072733;28;20041;-69
2023/01/24 02:24:05;;;;;;;20.10;10.77;;;3.70;99.90;;;;;;5071961;28;20117;-68
2023/01/24 02:26:31;;;;;;;21.02;10.50;;;3.70;99.90;;;;;;5071584;28;20105;-69
2023/01/24 02:29:01;;;;;;;20.27;11.00;;;3.70;99.90;;;;;;5072583;28;20048;-69
2023/01/24 02:31:27;;;;;;;17.85;10.52;;;3.70;99.90;;;;;;5072620;28;20436;-69
2023/01/24 02:33:52;;;;;;;19.60;10.77;;;3.80;99.90;;;;;;5070406;28;20036;-68
2023/01/24 02:36:38;;;;;;;22.05;11.38;;;3.70;99.90;;;;;;5072258;28;20064;-69
2023/01/24 02:39:11;;;;;;;25.08;11.88;;;3.70;99.90;;;;;;5072048;28;20061;-69
2023/01/24 02:42:00;;;;;;;22.33;11.65;;;3.70;99.90;;;;;;5072379;28;20093;-69
2023/01/24 02:44:34;;;;;;;20.70;11.23;;;3.60;99.90;;;;;;5071500;28;20040;-69
2023/01/24 02:46:59;;;;;;;20.60;10.40;;;3.60;99.90;;;;;;5072255;28;20048;-69
2023/01/24 02:49:25;;;;;;;23.27;11.80;;;3.60;99.90;;;;;;5072153;28;20032;-69
2023/01/24 02:54:34;;;;;;;20.95;10.90;;;3.70;99.90;;;;;;5070667;28;20044;-69
2023/01/24 02:59:44;;;;;;;22.02;11.88;;;3.70;99.90;;;;;;5070625;28;20136;-69
2023/01/24 03:02:10;;;;;;;17.77;10.38;;;3.70;99.90;;;;;;5072016;28;20119;-69
2023/01/24 03:04:35;;;;;;;20.58;11.95;;;3.70;99.90;;;;;;5071215;28;20032;-69
2023/01/24 03:07:01;;;;;;;23.65;10.60;;;3.70;99.90;;;;;;5071804;28;20036;-69
2023/01/24 03:09:38;;;;;;;16.35;9.77;;;3.70;99.90;;;;;;5070331;28;20047;-69
2023/01/24 03:36:43;;;;;;;15.20;9.27;;;3.70;99.90;;;;;;5071027;28;20155;-69
2023/01/24 03:41:56;;;;;;;16.42;9.07;;;3.70;99.90;;;;;;5069735;28;20048;-69
2023/01/24 03:44:23;;;;;;;17.20;9.23;;;3.70;99.90;;;;;;5070466;28;20089;-69
2023/01/24 03:46:49;;;;;;;19.83;8.88;;;3.70;99.90;;;;;;5070910;28;20633;-69
2023/01/24 03:49:16;;;;;;;15.75;8.68;;;3.70;99.90;;;;;;5069639;28;20091;-69
2023/01/24 03:54:25;;;;;;;18.55;9.27;;;3.70;99.90;;;;;;5068946;28;20053;-69
2023/01/24 03:56:51;;;;;;;18.55;9.23;;;3.70;99.90;;;;;;5070718;28;20409;-69
2023/01/24 03:59:17;;;;;;;17.33;8.65;;;3.70;99.90;;;;;;5071015;28;20036;-69
2023/01/24 04:01:42;;;;;;;14.00;8.30;;;3.70;99.90;;;;;;5070836;28;20035;-69
2023/01/24 04:04:08;;;;;;;14.20;8.23;;;3.70;99.90;;;;;;5070175;28;20504;-69
2023/01/24 04:06:33;;;;;;;13.32;7.25;;;3.60;99.90;;;;;;5069438;28;20409;-69
2023/01/24 04:08:59;;;;;;;17.52;8.20;;;3.50;99.90;;;;;;5069597;28;20048;-69
2023/01/24 04:11:24;;;;;;;13.48;7.72;;;3.60;99.90;;;;;;5070883;28;20509;-69
2023/01/24 04:13:50;;;;;;;14.93;7.65;;;3.60;99.90;;;;;;5070006;28;20033;-69
2023/01/24 04:16:16;;;;;;;15.25;7.82;;;3.60;99.90;;;;;;5069384;28;20440;-69
2023/01/24 04:18:43;;;;;;;16.30;7.72;;;3.60;99.90;;;;;;5070975;28;20056;-69
2023/01/24 04:21:09;;;;;;;16.05;8.57;;;3.70;99.90;;;;;;5070697;28;20512;-69
2023/01/24 04:23:35;;;;;;;17.40;7.97;;;3.70;99.90;;;;;;5070911;28;20040;-69
2023/01/24 04:26:00;;;;;;;13.43;7.60;;;3.70;99.90;;;;;;5070024;28;20044;-68
2023/01/24 04:28:26;;;;;;;11.55;7.55;;;3.60;99.90;;;;;;5069602;28;20055;-69
2023/01/24 04:31:00;;;;;;;13.93;7.78;;;3.70;99.90;;;;;;5069260;28;20119;-69
2023/01/24 04:33:26;;;;;;;14.57;7.90;;;3.70;99.90;;;;;;5052615;28;20044;-69
2023/01/24 04:35:56;;;;;;;13.25;8.15;;;3.70;99.90;;;;;;5069769;28;20040;-69
2023/01/24 04:38:22;;;;;;;13.48;7.22;;;3.50;99.90;;;;;;5070879;28;20043;-69
2023/01/24 04:40:59;;;;;;;12.00;7.05;;;3.50;99.90;;;;;;5070927;28;20392;-69
2023/01/24 04:43:25;;;;;;;12.32;7.20;;;3.50;99.90;;;;;;5052554;28;20071;-69
2023/01/24 04:45:55;;;;;;;15.68;7.50;;;3.50;99.90;;;;;;5069692;28;20045;-69
2023/01/24 04:48:20;;;;;;;15.55;8.00;;;3.50;99.90;;;;;;5070420;28;20041;-69
2023/01/24 04:50:46;;;;;;;12.50;6.93;;;3.50;99.90;;;;;;5070468;28;20029;-69
2023/01/24 04:53:11;;;;;;;11.07;7.40;;;3.60;99.90;;;;;;5070357;28;20032;-69
2023/01/24 04:55:37;;;;;;;12.88;7.25;;;3.50;99.90;;;;;;5069573;28;20040;-69
2023/01/24 04:58:02;;;;;;;15.25;7.28;;;3.60;99.90;;;;;;5070537;28;20032;-69
2023/01/24 05:00:28;;;;;;;12.70;7.43;;;3.60;99.90;;;;;;5069113;28;20037;-69
2023/01/24 05:02:53;;;;;;;13.65;8.20;;;3.60;99.90;;;;;;5069448;28;20048;-69
2023/01/24 05:05:19;;;;;;;13.93;6.95;;;3.60;99.90;;;;;;5068255;28;20082;-70
2023/01/24 05:07:44;;;;;;;13.77;7.35;;;3.60;99.90;;;;;;5070546;28;20056;-69
2023/01/24 05:10:11;;;;;;;13.32;6.65;;;3.60;99.90;;;;;;5068917;28;20497;-69
2023/01/24 05:12:37;;;;;;;15.13;7.72;;;3.60;99.90;;;;;;5068912;28;20036;-69
2023/01/24 05:15:03;;;;;;;13.38;7.63;;;3.60;99.90;;;;;;5069341;28;20033;-68
2023/01/24 05:17:28;;;;;;;12.75;7.10;;;3.60;99.90;;;;;;5071742;28;20040;-69
2023/01/24 05:19:54;;;;;;;12.23;7.45;;;3.40;99.90;;;;;;5072400;28;20102;-69
2023/01/24 05:22:19;;;;;;;13.63;7.32;;;3.50;99.90;;;;;;5072542;28;20037;-69
2023/01/24 05:24:45;;;;;;;11.45;6.97;;;3.40;99.90;;;;;;5071898;28;20120;-69
2023/01/24 05:27:10;;;;;;;12.15;7.20;;;3.40;99.90;;;;;;5073838;28;20032;-69
2023/01/24 05:29:36;;;;;;;12.70;7.45;;;3.50;99.90;;;;;;5073642;28;20036;-69
2023/01/24 05:32:02;;;;;;;12.50;7.30;;;3.50;99.90;;;;;;5073532;28;20556;-69
2023/01/24 05:34:27;;;;;;;12.95;7.90;;;3.50;99.90;;;;;;5072681;28;20378;-68
2023/01/24 05:36:53;;;;;;;14.13;7.10;;;3.50;99.90;;;;;;5072183;28;20040;-69
2023/01/24 05:39:18;;;;;;;16.40;8.30;;;3.50;99.90;;;;;;5073602;28;20044;-68
2023/01/24 05:41:44;;;;;;;12.82;7.35;;;3.60;99.90;;;;;;5072017;28;20553;-68
2023/01/24 05:44:09;;;;;;;16.80;7.80;;;3.50;99.90;;;;;;5072696;28;20512;-68
2023/01/24 05:46:35;;;;;;;12.65;7.60;;;3.50;99.90;;;;;;5073184;28;20079;-69
2023/01/24 05:49:01;;;;;;;15.07;9.07;;;3.50;99.90;;;;;;5073248;28;20047;-69
2023/01/24 05:51:26;;;;;;;15.77;8.98;;;3.40;99.90;;;;;;5073221;28;20041;-69
2023/01/24 05:53:52;;;;;;;14.10;7.32;;;3.40;99.90;;;;;;5071496;28;20110;-69
2023/01/24 05:56:19;;;;;;;14.35;8.38;;;3.30;99.90;;;;;;5072885;28;20040;-69
2023/01/24 05:58:46;;;;;;;15.07;7.93;;;3.40;99.90;;;;;;5072067;28;20536;-69
2023/01/24 06:01:18;;;;;;;12.93;7.00;;;3.40;99.90;;;;;;5073270;28;20078;-69
2023/01/24 06:03:45;;;;;;;16.85;8.80;;;3.30;99.90;;;;;;5072814;28;20086;-69
2023/01/24 06:06:13;;;;;;;15.90;8.52;;;3.30;99.90;;;;;;5071609;28;20148;-69
2023/01/24 06:08:39;;;;;;;14.70;7.60;;;3.40;99.90;;;;;;5071952;28;20044;-69
2023/01/24 06:11:16;;;;;;;13.88;8.55;;;3.40;99.90;;;;;;5054811;28;20104;-68
2023/01/24 06:13:42;;;;;;;15.50;7.65;;;3.50;99.90;;;;;;5071101;28;20515;-68
2023/01/24 06:16:14;;;;;;;18.55;8.35;;;3.50;99.90;;;;;;5071126;28;20100;-68
2023/01/24 06:18:40;;;;;;;13.67;7.67;;;3.50;99.90;;;;;;5072863;28;20043;-69
2023/01/24 06:21:08;;;;;;;14.25;8.25;;;3.50;99.90;;;;;;5072880;28;20350;-69
2023/01/24 06:23:33;;;;;;;13.63;7.72;;;3.50;99.90;;;;;;5071620;28;20726;-69
2023/01/24 06:25:59;;;;;;;12.38;7.25;;;3.30;99.90;;;;;;5070686;28;20048;-69
2023/01/24 06:28:25;;;;;;;12.70;7.50;;;3.30;99.90;;;;;;5071612;28;20044;-69
2023/01/24 06:31:01;;;;;;;17.08;8.82;;;3.30;99.90;;;;;;5072532;28;20041;-69
2023/01/24 06:33:36;;;;;;;13.52;8.32;;;3.40;99.90;;;;;;5071342;28;20045;-69
2023/01/24 06:36:22;;;;;;;16.33;7.88;;;3.40;99.90;;;;;;5071792;28;20044;-68
2023/01/24 06:38:48;;;;;;;15.52;9.13;;;3.40;99.90;;;;;;5072559;28;20079;-69
2023/01/24 06:41:16;;;;;;;12.63;7.50;;;3.30;99.90;;;;;;5071325;28;20068;-68
2023/01/24 06:43:43;;;;;;;14.05;7.85;;;3.30;99.90;;;;;;5071753;28;20112;-69
2023/01/24 06:46:09;;;;;;;13.60;7.38;;;3.30;99.90;;;;;;5071942;28;20043;-69
2023/01/24 06:48:35;;;;;;;16.73;7.97;;;3.20;99.90;;;;;;5072327;28;20128;-69
2023/01/24 06:51:00;;;;;;;13.88;7.28;;;3.10;99.90;;;;;;5070850;28;20115;-69
2023/01/24 06:53:26;;;;;;;14.63;7.22;;;3.10;99.90;;;;;;5072114;28;20097;-68
2023/01/24 06:55:52;;;;;;;14.82;7.50;;;3.00;99.90;;;;;;5071223;28;20424;-69
2023/01/24 06:58:17;;;;;;;15.38;7.70;;;3.00;99.90;;;;;;5070870;28;20045;-69
2023/01/24 07:00:43;;;;;;;12.63;7.97;;;3.10;99.90;;;;;;5071949;28;20124;-69
2023/01/24 07:03:09;;;;;;;12.43;7.53;;;3.00;99.90;;;;;;5070419;28;20044;-69
2023/01/24 07:05:36;;;;;;;14.27;7.28;;;3.00;99.90;;;;;;5071196;28;20048;-69
2023/01/24 07:08:03;;;;;;;13.93;8.07;;;3.10;99.90;;;;;;5071959;28;20052;-69
2023/01/24 07:10:29;;;;;;;14.23;8.73;;;3.10;99.90;;;;;;5070477;28;20051;-69
2023/01/24 07:12:55;;;;;;;18.85;8.13;;;3.10;99.90;;;;;;5070227;28;20036;-69
2023/01/24 07:15:21;;;;;;;11.98;7.70;;;3.20;99.90;;;;;;5070734;28;20047;-69
2023/01/24 07:17:47;;;;;;;15.85;8.15;;;3.10;99.90;;;;;;5070400;28;20032;-68
2023/01/24 07:20:13;;;;;;;14.68;8.68;;;3.20;99.90;;;;;;5070253;28;20036;-69
2023/01/24 07:22:40;;;;;;;15.27;8.75;;;3.30;99.90;;;;;;5071699;28;20040;-69
2023/01/24 07:25:19;;;;;;;13.48;8.45;;;3.20;99.90;;;;;;5070687;28;20043;-69
2023/01/24 07:27:46;;;;;;;15.60;8.40;;;3.30;99.90;;;;;;5071396;28;20531;-69
2023/01/24 07:30:13;;;;;;;13.88;7.78;;;3.30;99.90;;;;;;5071319;28;20427;-69
2023/01/24 07:32:39;;;;;;;15.20;8.07;;;3.30;99.90;;;;;;5071303;28;20037;-68
2023/01/24 07:35:06;;;;;;;15.38;9.35;;;3.30;99.90;;;;;;5070566;28;20039;-68
2023/01/24 07:37:32;;;;;;;12.95;8.65;;;3.20;99.90;;;;;;5071211;28;20036;-68
2023/01/24 07:39:58;;;;;;;12.98;7.93;;;3.10;99.90;;;;;;5070973;28;20106;-68
2023/01/24 07:42:23;;;;;;;15.85;8.70;;;3.20;99.90;;;;;;5069509;28;20036;-68
2023/01/24 07:44:49;;;;;;;17.70;8.57;;;3.20;99.90;;;;;;5064812;28;20052;-68
2023/01/24 07:47:15;;;;;;;13.38;8.45;;;3.20;99.90;;;;;;5059023;28;20587;-68
2023/01/24 07:49:40;;;;;;;14.07;8.65;;;3.20;99.90;;;;;;5058170;28;20047;-68
2023/01/24 07:52:06;;;;;;;16.23;9.07;;;3.20;99.90;;;;;;5059349;28;20678;-68
2023/01/24 07:54:31;;;;;;;17.15;8.45;;;3.20;99.90;;;;;;5059815;28;20076;-69
2023/01/24 07:56:57;;;;;;;13.32;8.00;;;3.10;99.90;;;;;;5067750;28;20052;-69
2023/01/24 07:59:23;;;;;;;15.02;8.63;;;3.10;99.90;;;;;;5070886;28;20137;-69
2023/01/24 08:01:48;;;;;;;12.32;7.82;;;3.20;99.90;;;;;;5067940;28;20582;-69
2023/01/24 08:04:14;;;;;;;14.82;8.27;;;3.00;99.90;;;;;;5067132;28;20041;-70
2023/01/24 08:07:16;;;;;;;13.77;8.30;;;3.00;99.90;;;;;;5066362;28;20045;-68
2023/01/24 08:09:28;;;;;;;13.10;8.25;;;3.10;99.90;;;;;;5061561;28;20048;-69
2023/01/24 08:11:54;;;;;;;14.85;9.10;;;3.10;99.90;;;;;;5055366;28;20116;-69
2023/01/24 08:14:21;;;;;;;12.57;8.93;;;3.00;99.90;;;;;;5060789;28;20433;-69
2023/01/24 08:16:47;;;;;;;16.52;8.77;;;3.10;99.90;;;;;;5060222;28;20037;-69
2023/01/24 08:19:13;;;;;;;13.02;8.40;;;3.10;99.90;;;;;;5059912;28;20048;-69
2023/01/24 08:21:38;;;;;;;13.30;8.38;;;3.10;99.90;;;;;;5043204;28;20033;-69
2023/01/24 08:24:04;;;;;;;14.82;9.13;;;3.10;99.90;;;;;;5051493;28;20041;-69
2023/01/24 08:26:30;;;;;;;14.38;8.68;;;3.00;99.90;;;;;;5050513;28;20049;-69
2023/01/24 08:28:55;;;;;;;15.52;8.07;;;3.00;99.90;;;;;;5049510;28;20040;-68
2023/01/24 08:31:21;;;;;;;15.55;9.00;;;3.00;99.90;;;;;;5049132;28;20567;-70
2023/01/24 08:33:47;;;;;;;14.77;8.07;;;3.00;99.90;;;;;;5048945;28;20475;-67
2023/01/24 08:36:12;;;;;;;14.55;9.10;;;2.90;99.90;;;;;;5050458;28;20032;-69
2023/01/24 08:38:38;;;;;;;15.82;9.23;;;2.90;99.90;;;;;;5048891;28;20037;-67
2023/01/24 08:41:04;;;;;;;16.00;9.38;;;2.90;99.90;;;;;;5050473;28;20048;-67
2023/01/24 08:43:30;;;;;;;14.80;8.73;;;3.00;99.90;;;;;;5049475;28;20435;-68
2023/01/24 08:45:56;;;;;;;17.42;9.40;;;3.00;99.90;;;;;;5048326;28;20072;-68
2023/01/24 08:48:22;;;;;;;17.85;10.35;;;3.30;99.90;;;;;;5050457;28;20072;-69
2023/01/24 08:50:47;;;;;;;14.95;8.98;;;3.30;99.90;;;;;;5063075;28;20098;-68
2023/01/24 08:53:14;;;;;;;16.30;8.98;;;3.20;99.90;;;;;;5071929;28;20121;-68
2023/01/24 08:55:40;;;;;;;19.15;9.32;;;3.10;99.90;;;;;;5071263;28;20119;-68
2023/01/24 08:58:05;;;;;;;15.60;9.32;;;3.10;99.90;;;;;;5072738;28;20456;-67
2023/01/24 09:00:32;;;;;;;15.32;9.32;;;3.20;99.90;;;;;;5074012;28;20114;-68
2023/01/24 09:03:01;;;;;;;17.92;9.13;;;3.10;99.90;;;;;;5073736;28;20102;-68
2023/01/24 09:05:28;;;;;;;14.90;8.60;;;3.20;99.90;;;;;;5072983;28;20048;-68
2023/01/24 09:07:53;;;;;;;14.05;8.68;;;3.10;99.90;;;;;;5073555;28;20556;-68
2023/01/24 09:10:19;;;;;;;15.05;9.45;;;3.10;99.90;;;;;;5073180;28;20123;-68
2023/01/24 09:12:44;;;;;;;16.45;9.48;;;3.10;99.90;;;;;;5072338;28;20055;-68
2023/01/24 09:15:10;;;;;;;14.02;9.27;;;3.10;99.90;;;;;;5073229;28;20068;-68
2023/01/24 09:17:37;;;;;;;18.50;9.25;;;3.20;99.90;;;;;;5073584;28;20032;-68
2023/01/24 09:20:05;;;;;;;15.10;9.07;;;3.20;99.90;;;;;;5072581;28;20048;-68
2023/01/24 09:22:30;;;;;;;18.15;9.70;;;3.30;99.90;;;;;;5055920;28;20560;-68
2023/01/24 09:24:56;;;;;;;14.98;8.75;;;3.10;99.90;;;;;;5073220;28;20111;-67
2023/01/24 09:27:21;;;;;;;14.93;9.32;;;3.00;99.90;;;;;;5074127;28;20044;-67
2023/01/24 09:29:47;;;;;;;15.02;8.68;;;3.00;99.90;;;;;;5072377;28;20055;-67
2023/01/24 09:32:13;;;;;;;16.17;9.90;;;3.10;99.90;;;;;;5072394;28;20037;-67
2023/01/24 09:34:45;;;;;;;17.48;9.88;;;3.10;99.90;;;;;;5072814;28;20068;-67
2023/01/24 09:37:11;;;;;;;14.10;8.75;;;3.20;99.90;;;;;;5073827;28;20045;-67
2023/01/24 09:39:37;;;;;;;14.45;8.60;;;3.20;99.90;;;;;;5073575;28;20093;-67
2023/01/24 09:42:37;;;;;;;18.30;9.20;;;3.20;99.90;;;;;;5073551;28;20119;-68
2023/01/24 09:45:27;;;;;;;16.20;9.70;;;3.20;99.90;;;;;;5072607;28;20032;-68
2023/01/24 09:48:05;;;;;;;14.93;8.85;;;3.30;99.90;;;;;;5073508;28;20040;-67
2023/01/24 09:50:42;;;;;;;17.08;9.77;;;3.30;99.90;;;;;;5061685;28;20444;-67
2023/01/24 09:53:16;;;;;;;15.80;9.55;;;3.20;99.90;;;;;;5067426;28;20196;-68
2023/01/24 09:55:42;;;;;;;14.52;8.35;;;3.30;99.90;;;;;;5072633;28;20036;-67
2023/01/24 09:58:31;;;;;;;17.45;10.02;;;3.20;99.90;;;;;;5073435;28;20032;-69
2023/01/24 10:01:08;;;;;;;14.70;8.02;;;3.20;99.90;;;;;;5073110;28;20405;-68
2023/01/24 10:03:35;;;;;;;13.60;8.68;;;3.30;99.90;;;;;;5071259;28;20040;-66
2023/01/24 10:06:15;;;;;;;13.48;8.80;;;3.30;99.90;;;;;;5072368;28;20045;-66
2023/01/24 10:08:54;;;;;;;15.02;9.32;;;3.30;99.90;;;;;;5073197;28;20044;-66
2023/01/24 10:11:47;;;;;;;14.80;8.82;;;3.30;99.90;;;;;;5073167;28;20036;-67
2023/01/24 10:14:13;;;;;;;;;;;3.30;99.90;;;;;;5072855;28;20495;-67
2023/01/24 10:17:11;;;;;;;18.40;9.40;;;3.20;99.90;;;;;;5072928;28;20013;-67
2023/01/24 10:20:07;;;;;;;14.55;8.75;;;3.20;99.90;;;;;;5072875;28;20037;-66
2023/01/24 10:22:48;;;;;;;17.13;9.90;;;3.20;99.90;;;;;;5072768;28;20048;-67
2023/01/24 10:25:26;;;;;;;13.60;9.07;;;3.20;99.90;;;;;;5072326;28;20062;-67
2023/01/24 10:27:55;;;;;;;15.82;8.82;;;3.20;99.90;;;;;;5071136;28;20036;-67
2023/01/24 10:30:27;;;;;;;14.70;8.98;;;3.30;99.90;;;;;;5072781;28;20493;-66
2023/01/24 10:32:56;;;;;;;;;;;3.40;99.90;;;;;;5072777;28;20257;-69
2023/01/24 10:35:47;;;;;;;15.02;8.80;;;3.30;99.90;;;;;;5071754;28;20332;-67
2023/01/24 10:38:15;;;;;;;15.82;9.15;;;3.30;99.90;;;;;;5072500;28;20032;-67
2023/01/24 10:40:51;;;;;;;16.20;10.07;;;3.30;99.90;;;;;;5072763;28;20037;-67
2023/01/24 10:43:17;;;;;;;13.93;8.65;;;3.40;99.90;;;;;;5060382;28;20053;-70
2023/01/24 10:45:55;;;;;;;15.30;9.88;;;3.30;99.90;;;;;;5057680;28;20119;-68
2023/01/24 10:48:42;;;;;;;14.30;8.98;;;3.20;99.90;;;;;;5066613;28;20044;-68
2023/01/24 10:51:16;;;;;;;16.30;9.57;;;3.30;99.90;;;;;;5056506;28;20045;-68
2023/01/24 10:53:42;;;;;;;14.40;8.60;;;3.10;99.90;;;;;;5059096;28;20036;-68
2023/01/24 10:56:08;;;;;;;15.68;8.70;;;3.10;99.90;;;;;;5060468;28;20501;-68
2023/01/24 10:58:41;;;;;;;14.20;8.68;;;3.00;99.90;;;;;;5061578;28;20145;-68
2023/01/24 11:01:19;;;;;;;12.38;7.30;;;3.00;99.90;;;;;;5063593;28;20124;-68
2023/01/24 11:03:47;;;;;;;14.23;8.18;;;3.00;99.90;;;;;;5052581;28;20077;-69
2023/01/24 11:06:27;;;;;;;14.57;9.30;;;2.90;99.90;;;;;;5055726;28;20495;-68
2023/01/24 11:09:04;;;;;;;15.63;8.82;;;2.90;99.90;;;;;;5064883;28;20123;-69
2023/01/24 11:11:32;;;;;;;16.73;9.48;;;2.90;99.90;;;;;;5063743;28;20072;-69
2023/01/24 11:14:02;;;;;;;13.75;8.80;;;2.90;99.90;;;;;;5069362;28;20047;-68
2023/01/24 11:16:42;;;;;;;13.65;8.65;;;2.90;99.90;;;;;;5070817;28;20048;-68
2023/01/24 11:19:20;;;;;;;14.55;8.45;;;2.80;99.90;;;;;;5071127;28;20501;-69
2023/01/24 11:21:54;;;;;;;16.80;8.98;;;2.90;99.90;;;;;;5071212;28;20093;-69
2023/01/24 11:24:22;;;;;;;15.07;9.05;;;3.00;99.90;;;;;;5070635;28;20120;-69
2023/01/24 11:27:03;;;;;;;15.32;8.57;;;2.90;99.90;;;;;;5069688;28;20036;-69
2023/01/24 11:29:29;;;;;;;14.52;8.98;;;3.00;99.90;;;;;;5069610;28;20190;-69
2023/01/24 11:32:00;;;;;;;14.05;8.52;;;3.10;99.90;;;;;;5070706;28;20048;-68
2023/01/24 11:34:54;;;;;;;15.23;8.82;;;3.10;99.90;;;;;;5052595;28;20397;-69
2023/01/24 11:37:50;;;;;;;14.93;8.20;;;3.10;99.90;;;;;;5069074;28;20139;-68
2023/01/24 11:40:27;;;;;;;16.10;9.02;;;3.10;99.90;;;;;;5069839;28;20067;-68
2023/01/24 11:43:07;;;;;;;16.23;8.50;;;3.00;99.90;;;;;;5070862;28;20118;-68
2023/01/24 11:45:51;;;;;;;16.42;8.48;;;2.90;99.90;;;;;;5064095;28;20370;-68
2023/01/24 11:48:22;;;;;;;15.57;8.98;;;2.90;99.90;;;;;;5057798;28;20040;-68
2023/01/24 11:51:12;;;;;;;16.02;9.43;;;2.90;99.90;;;;;;5061166;28;20072;-68
2023/01/24 11:54:09;;;;;;;13.90;8.93;;;3.00;99.90;;;;;;5059011;28;20039;-67
2023/01/24 11:57:01;;;;;;;18.02;8.73;;;3.00;99.90;;;;;;5061400;28;20040;-67
2023/01/24 11:59:47;;;;;;;14.48;8.07;;;2.90;99.90;;;;;;5060306;28;20040;-68
2023/01/24 12:02:34;;;;;;;15.40;9.88;;;3.00;99.90;;;;;;5028822;28;20045;-68
2023/01/24 12:05:09;;;;;;;15.23;8.77;;;3.00;99.90;;;;;;5048895;28;20041;-69
2023/01/24 12:07:52;;;;;;;16.80;9.27;;;3.10;99.90;;;;;;5063881;28;20047;-68
2023/01/24 12:10:29;;;;;;;14.65;8.80;;;3.00;99.90;;;;;;5070688;28;20131;-68
2023/01/24 12:13:09;;;;;;;16.88;8.85;;;3.00;99.90;;;;;;5070480;28;20040;-67
2023/01/24 12:15:38;;;;;;;14.82;9.82;;;2.90;99.90;;;;;;5069986;28;20041;-67
2023/01/24 12:18:10;;;;;;;15.80;9.60;;;3.00;99.90;;;;;;5052419;28;20044;-67
2023/01/24 12:20:59;;;;;;;14.85;8.90;;;3.00;99.90;;;;;;5055409;28;20040;-68
2023/01/24 12:24:08;;;;;;;13.10;8.77;;;3.00;99.90;;;;;;5050219;28;20072;-68
2023/01/24 12:26:45;;;;;;;14.40;9.02;;;3.00;99.90;;;;;;5008314;28;20433;-67
2023/01/24 12:29:38;;;;;;;15.18;8.18;;;3.10;99.90;;;;;;5012196;28;20056;-67
2023/01/24 12:32:23;;;;;;;;;;;3.20;99.90;;;;;;5012884;28;20060;-68
2023/01/24 12:34:55;;;;;;;16.60;9.38;;;3.30;99.90;;;;;;5011525;28;19921;-68
2023/01/24 12:37:41;;;;;;;13.93;8.45;;;3.10;99.90;;;;;;5012341;28;20418;-68
2023/01/24 12:40:12;;;;;;;14.80;8.63;;;3.10;99.90;;;;;;4995589;28;20048;-68
2023/01/24 12:42:48;;;;;;;14.95;9.10;;;3.10;99.90;;;;;;5012237;28;20173;-67
2023/01/24 12:45:20;;;;;;;15.38;8.70;;;3.10;99.90;;;;;;5011279;28;20379;-67
2023/01/24 12:48:12;;;;;;;12.13;7.90;;;3.10;99.90;;;;;;5011952;28;20121;-68
2023/01/24 12:50:57;;;;;;;18.42;10.02;;;3.20;99.90;;;;;;5007573;28;20042;-68
2023/01/24 12:53:47;;;;;;;15.02;9.43;;;3.20;99.90;;;;;;5012210;28;20073;-68
2023/01/24 12:56:19;;;;;;;15.77;8.25;;;3.30;99.90;;;;;;5011587;28;20053;-68
2023/01/24 12:58:48;;;;;;;14.88;9.07;;;3.20;99.90;;;;;;4995713;28;20394;-68
2023/01/24 13:01:16;;;;;;;12.27;8.50;;;3.20;99.90;;;;;;5011788;28;20469;-68
2023/01/24 13:04:19;;;;;;;15.85;8.68;;;3.20;99.90;;;;;;5042851;28;20125;-68
2023/01/24 13:06:59;;;;;;;17.30;10.07;;;3.20;99.90;;;;;;5053583;28;20502;-67
2023/01/24 13:09:42;;;;;;;15.18;8.70;;;3.20;99.90;;;;;;5053676;28;20497;-67
2023/01/24 13:12:15;;;;;;;14.38;8.77;;;3.20;99.90;;;;;;5052368;28;20045;-67
2023/01/24 13:14:42;;;;;;;17.20;10.20;;;3.10;99.90;;;;;;5051757;28;20037;-68
2023/01/24 13:17:30;;;;;;;14.13;9.13;;;3.20;99.90;;;;;;5053794;28;20401;-67
2023/01/24 13:20:11;;;;;;;13.25;8.93;;;3.00;99.90;;;;;;5054415;28;20037;-68
2023/01/24 13:22:57;;;;;;;18.13;9.85;;;3.10;99.90;;;;;;5053914;28;20037;-68
2023/01/24 13:25:42;;;;;;;16.20;9.80;;;3.20;99.90;;;;;;5056452;28;20223;-68
2023/01/24 13:28:31;;;;;;;16.13;8.73;;;3.30;99.90;;;;;;5058570;28;20107;-67
2023/01/24 13:31:18;;;;;;;14.23;8.75;;;3.30;99.90;;;;;;5060317;28;20064;-67
2023/01/24 13:33:50;;;;;;;17.00;9.95;;;3.30;99.90;;;;;;5053160;28;20448;-67
2023/01/24 13:36:20;;;;;;;12.82;8.38;;;3.30;99.90;;;;;;5055814;28;20037;-67
2023/01/24 13:38:47;;;;;;;13.25;8.25;;;3.20;99.90;;;;;;5051616;28;20534;-67
2023/01/24 13:41:31;;;;;;;18.65;9.10;;;3.20;99.90;;;;;;5052751;28;20090;-68